createdAt,value
2023-04-06T00:00:16.828Z,38.20
2023-04-06T00:02:18.623Z,39.32
2023-04-06T00:04:20.337Z,39.61
2023-04-06T00:06:23.507Z,39.10
2023-04-06T00:08:25.382Z,38.74
2023-04-06T00:10:27.166Z,39.41
2023-04-06T00:12:28.933Z,39.01
2023-04-06T00:14:30.712Z,38.38
2023-04-06T00:16:35.173Z,37.76
2023-04-06T00:18:36.887Z,37.94
2023-04-06T00:20:38.820Z,37.62
2023-04-06T00:22:42.156Z,38.36
2023-04-06T00:24:43.894Z,37.41
2023-04-06T00:26:45.557Z,36.88
2023-04-06T00:28:47.214Z,37.62
2023-04-06T00:30:48.960Z,37.16
2023-04-06T00:32:51.319Z,36.52
2023-04-06T00:34:52.928Z,37.56
2023-04-06T00:36:54.635Z,37.28
2023-04-06T00:38:57.884Z,36.67
2023-04-06T00:40:59.606Z,37.35
2023-04-06T00:43:01.419Z,38.39
2023-04-06T00:45:03.517Z,38.75
2023-04-06T00:47:05.168Z,37.50
2023-04-06T00:49:07.086Z,37.67
2023-04-06T00:51:08.891Z,37.45
2023-04-06T00:53:10.543Z,38.23
2023-04-06T00:55:13.577Z,38.49
2023-04-06T00:57:15.600Z,37.33
2023-04-06T00:59:17.374Z,38.26
2023-04-06T01:01:19.292Z,38.82
2023-04-06T01:03:20.965Z,39.56
2023-04-06T01:05:22.682Z,39.90
2023-04-06T01:07:24.675Z,39.19
2023-04-06T01:09:28.819Z,39.89
2023-04-06T01:11:31.857Z,39.10
2023-04-06T01:13:33.536Z,38.60
2023-04-06T01:15:36.877Z,39.45
2023-04-06T01:17:38.552Z,39.56
2023-04-06T01:19:40.477Z,39.84
2023-04-06T01:21:42.768Z,40.23
2023-04-06T01:23:46.214Z,40.14
2023-04-06T01:25:47.959Z,40.45
2023-04-06T01:27:49.679Z,40.19
2023-04-06T01:29:51.499Z,40.69
2023-04-06T01:31:53.219Z,41.27
2023-04-06T01:33:55.506Z,41.49
2023-04-06T01:35:57.205Z,41.82
2023-04-06T01:37:58.933Z,42.12
2023-04-06T01:40:02.054Z,41.97
2023-04-06T01:42:04.036Z,41.59
2023-04-06T01:44:05.909Z,41.41
2023-04-06T01:46:07.656Z,41.00
2023-04-06T01:48:09.384Z,41.09
2023-04-06T01:50:11.051Z,40.94
2023-04-06T01:52:12.640Z,39.81
2023-04-06T01:54:14.329Z,40.94
2023-04-06T01:56:17.347Z,40.93
2023-04-06T01:58:18.906Z,41.10
2023-04-06T02:00:20.540Z,40.82
2023-04-06T02:02:22.223Z,40.22
2023-04-06T02:04:23.968Z,41.01
2023-04-06T02:06:25.542Z,41.38
2023-04-06T02:08:27.220Z,41.08
2023-04-06T02:10:28.944Z,40.72
2023-04-06T02:12:31.897Z,41.44
2023-04-06T02:14:33.834Z,41.71
2023-04-06T02:16:35.501Z,41.38
2023-04-06T02:18:37.129Z,42.24
2023-04-06T02:20:38.779Z,42.86
2023-04-06T02:22:40.653Z,42.52
2023-04-06T02:24:42.281Z,42.68
2023-04-06T02:26:44.002Z,42.57
2023-04-06T02:28:47.057Z,43.19
2023-04-06T02:30:48.659Z,43.27
2023-04-06T02:32:50.362Z,44.22
2023-04-06T02:34:52.190Z,44.28
2023-04-06T02:36:53.794Z,43.81
2023-04-06T02:38:55.646Z,44.26
2023-04-06T02:40:57.225Z,43.56
2023-04-06T02:42:58.884Z,44.76
2023-04-06T02:45:02.065Z,44.33
2023-04-06T02:47:03.643Z,44.93
2023-04-06T02:49:05.319Z,45.08
2023-04-06T02:51:06.992Z,45.01
2023-04-06T02:53:08.601Z,44.82
2023-04-06T02:55:10.261Z,45.11
2023-04-06T02:57:11.986Z,45.09
2023-04-06T02:59:13.632Z,44.89
2023-04-06T03:01:16.727Z,44.41
2023-04-06T03:03:18.474Z,44.50
2023-04-06T03:05:20.174Z,44.54
2023-04-06T03:07:24.919Z,44.25
2023-04-06T03:09:26.641Z,44.46
2023-04-06T03:11:28.179Z,44.10
2023-04-06T03:13:29.991Z,43.96
2023-04-06T03:15:31.660Z,44.19
2023-04-06T03:17:34.785Z,44.04
2023-04-06T03:19:36.415Z,43.91
2023-04-06T03:21:38.076Z,42.99
2023-04-06T03:23:39.693Z,43.21
2023-04-06T03:25:41.296Z,43.96
2023-04-06T03:27:43.191Z,44.06
2023-04-06T03:29:44.749Z,43.98
2023-04-06T03:31:46.359Z,43.74
2023-04-06T03:33:49.750Z,43.76
2023-04-06T03:35:51.531Z,43.76
2023-04-06T03:37:55.785Z,43.84
2023-04-06T03:39:57.730Z,43.44
2023-04-06T03:41:59.402Z,44.02
2023-04-06T03:44:01.024Z,43.78
2023-04-06T03:46:02.959Z,44.22
2023-04-06T03:48:04.964Z,43.14
2023-04-06T03:50:10.055Z,43.85
2023-04-06T03:52:11.721Z,43.70
2023-04-06T03:54:13.391Z,44.76
2023-04-06T03:56:14.974Z,44.25
2023-04-06T03:58:16.841Z,43.32
2023-04-06T04:00:18.709Z,44.09
2023-04-06T04:02:20.470Z,44.05
2023-04-06T04:04:22.362Z,44.32
2023-04-06T04:06:25.330Z,44.10
2023-04-06T04:08:26.926Z,43.34
2023-04-06T04:10:28.650Z,43.90
2023-04-06T04:12:30.556Z,44.53
2023-04-06T04:14:32.274Z,44.03
2023-04-06T04:16:33.935Z,44.24
2023-04-06T04:18:35.584Z,44.31
2023-04-06T04:20:37.237Z,44.61
2023-04-06T04:22:40.391Z,43.78
2023-04-06T04:24:41.978Z,44.22
2023-04-06T04:26:43.651Z,43.15
2023-04-06T04:28:45.293Z,43.63
2023-04-06T04:30:47.305Z,44.49
2023-04-06T04:32:49.023Z,44.43
2023-04-06T04:34:52.020Z,44.59
2023-04-06T04:36:53.705Z,44.66
2023-04-06T04:38:56.731Z,45.00
2023-04-06T04:40:58.385Z,45.07
2023-04-06T04:43:00.022Z,43.80
2023-04-06T04:45:01.678Z,44.51
2023-04-06T04:47:03.273Z,44.66
2023-04-06T04:49:04.935Z,44.56
2023-04-06T04:51:06.656Z,44.82
2023-04-06T04:53:08.285Z,44.75
2023-04-06T04:55:14.197Z,45.05
2023-04-06T04:57:15.803Z,45.15
2023-04-06T04:59:17.527Z,45.05
2023-04-06T05:01:19.292Z,45.76
2023-04-06T05:03:24.106Z,45.99
2023-04-06T05:05:25.908Z,45.88
2023-04-06T05:07:27.770Z,45.96
2023-04-06T05:09:30.518Z,45.99
2023-04-06T05:11:33.864Z,46.30
2023-04-06T05:13:35.549Z,46.24
2023-04-06T05:15:37.580Z,46.01
2023-04-06T05:17:39.331Z,46.23
2023-04-06T05:19:41.463Z,46.12
2023-04-06T05:21:43.152Z,46.36
2023-04-06T05:23:44.858Z,45.94
2023-04-06T05:25:46.499Z,45.82
2023-04-06T05:27:49.554Z,46.15
2023-04-06T05:29:51.230Z,45.86
2023-04-06T05:31:52.882Z,46.01
2023-04-06T05:33:54.649Z,46.23
2023-04-06T05:35:56.359Z,46.47
2023-04-06T05:37:58.151Z,45.92
2023-04-06T05:39:59.832Z,46.65
2023-04-06T05:42:05.027Z,46.61
2023-04-06T05:44:07.949Z,46.44
2023-04-06T05:46:09.752Z,46.68
2023-04-06T05:48:11.432Z,47.05
2023-04-06T05:50:13.450Z,47.02
2023-04-06T05:52:15.089Z,46.82
2023-04-06T05:54:16.743Z,46.61
2023-04-06T05:56:33.213Z,46.73
2023-04-06T05:58:34.866Z,46.91
2023-04-06T06:00:37.917Z,47.05
2023-04-06T06:02:39.803Z,47.12
2023-04-06T06:04:41.483Z,46.79
2023-04-06T06:06:43.079Z,45.75
2023-04-06T06:08:44.736Z,45.95
2023-04-06T06:10:46.340Z,46.50
2023-04-06T06:12:48.054Z,47.47
2023-04-06T06:14:49.646Z,47.35
2023-04-06T06:16:52.632Z,46.87
2023-04-06T06:18:54.298Z,45.83
2023-04-06T06:20:55.900Z,45.80
2023-04-06T06:22:57.568Z,46.03
2023-04-06T06:24:59.268Z,46.06
2023-04-06T06:27:01.136Z,45.88
2023-04-06T06:29:02.805Z,46.23
2023-04-06T06:31:04.672Z,45.56
2023-04-06T06:33:07.635Z,46.23
2023-04-06T06:35:09.679Z,46.47
2023-04-06T06:37:11.468Z,45.54
2023-04-06T06:39:13.052Z,46.20
2023-04-06T06:41:15.390Z,46.58
2023-04-06T06:43:17.163Z,46.52
2023-04-06T06:45:18.816Z,46.13
2023-04-06T06:47:20.438Z,46.36
2023-04-06T06:49:23.585Z,46.70
2023-04-06T06:51:25.233Z,47.11
2023-04-06T06:53:26.948Z,47.18
2023-04-06T06:55:28.511Z,46.85
2023-04-06T06:57:30.220Z,46.77
2023-04-06T06:59:31.870Z,45.14
2023-04-06T07:01:34.179Z,46.05
2023-04-06T07:03:35.854Z,45.67
2023-04-06T07:05:41.341Z,45.03
2023-04-06T07:07:43.233Z,44.54
2023-04-06T07:09:44.931Z,44.01
2023-04-06T07:11:46.586Z,43.82
2023-04-06T07:13:48.369Z,42.75
2023-04-06T07:15:50.328Z,42.20
2023-04-06T07:17:51.954Z,42.89
2023-04-06T07:19:53.838Z,42.48
2023-04-06T07:21:56.885Z,40.22
2023-04-06T07:23:58.558Z,41.01
2023-04-06T07:26:00.208Z,40.17
2023-04-06T07:28:02.650Z,40.13
2023-04-06T07:30:04.864Z,40.02
2023-04-06T07:32:06.723Z,40.73
2023-04-06T07:34:08.539Z,40.86
2023-04-06T07:36:10.305Z,40.21
2023-04-06T07:38:13.590Z,39.41
2023-04-06T07:40:15.512Z,39.32
2023-04-06T07:42:17.186Z,38.83
2023-04-06T07:44:18.897Z,38.31
2023-04-06T07:46:20.544Z,38.62
2023-04-06T07:48:22.140Z,38.35
2023-04-06T07:50:23.883Z,38.86
2023-04-06T07:52:25.617Z,39.20
2023-04-06T07:54:28.664Z,39.59
2023-04-06T07:56:30.347Z,39.61
2023-04-06T07:58:31.964Z,39.79
2023-04-06T08:00:33.751Z,39.37
2023-04-06T08:02:35.482Z,39.07
2023-04-06T08:04:37.566Z,38.79
2023-04-06T08:06:39.277Z,38.70
2023-04-06T08:08:40.959Z,38.22
2023-04-06T08:10:43.965Z,37.87
2023-04-06T08:12:45.607Z,37.00
2023-04-06T08:14:47.309Z,37.05
2023-04-06T08:16:49.175Z,39.17
2023-04-06T08:18:50.773Z,38.17
2023-04-06T08:20:55.668Z,36.67
2023-04-06T08:22:57.394Z,37.59
2023-04-06T08:24:59.244Z,38.00
2023-04-06T08:27:02.409Z,37.29
2023-04-06T08:29:04.592Z,36.87
2023-04-06T08:31:06.827Z,36.94
2023-04-06T08:33:08.627Z,36.00
2023-04-06T08:35:10.242Z,36.26
2023-04-06T08:37:11.979Z,37.02
2023-04-06T08:39:13.707Z,37.01
2023-04-06T08:41:15.240Z,35.30
2023-04-06T08:43:21.312Z,36.16
2023-04-06T08:45:23.163Z,35.00
2023-04-06T08:47:25.214Z,35.60
2023-04-06T08:49:28.283Z,35.20
2023-04-06T08:51:30.886Z,35.12
2023-04-06T08:53:32.675Z,34.72
2023-04-06T08:55:35.550Z,35.50
2023-04-06T08:57:37.605Z,35.78
2023-04-06T08:59:40.992Z,35.28
2023-04-06T09:01:45.513Z,35.69
2023-04-06T09:03:49.574Z,36.81
2023-04-06T09:05:51.529Z,36.39
2023-04-06T09:07:53.626Z,35.95
2023-04-06T09:09:55.283Z,35.72
2023-04-06T09:11:56.960Z,35.97
2023-04-06T09:13:58.769Z,36.56
2023-04-06T09:16:02.869Z,35.90
2023-04-06T09:18:04.653Z,36.35
2023-04-06T09:20:07.198Z,35.26
2023-04-06T09:22:08.945Z,35.47
2023-04-06T09:24:11.079Z,35.50
2023-04-06T09:26:15.013Z,34.86
2023-04-06T09:28:18.996Z,34.64
2023-04-06T09:30:20.661Z,34.70
2023-04-06T09:32:23.710Z,35.14
2023-04-06T09:34:25.346Z,34.40
2023-04-06T09:36:33.665Z,34.04
2023-04-06T09:38:35.342Z,34.36
2023-04-06T09:40:37.765Z,34.66
2023-04-06T09:42:42.849Z,35.42
2023-04-06T09:44:44.487Z,33.75
2023-04-06T09:46:59.556Z,34.05
2023-04-06T09:49:05.175Z,34.37
2023-04-06T09:51:07.878Z,34.31
2023-04-06T09:53:10.276Z,34.24
2023-04-06T09:55:17.533Z,33.97
2023-04-06T09:57:25.906Z,34.30
2023-04-06T09:59:43.801Z,34.35
2023-04-06T10:01:49.556Z,33.28
2023-04-06T10:04:03.407Z,34.44
2023-04-06T10:06:11.574Z,34.43
2023-04-06T10:08:14.906Z,33.07
2023-04-06T10:10:16.960Z,32.38
2023-04-06T10:12:18.775Z,32.25
2023-04-06T10:14:20.577Z,32.05
2023-04-06T10:16:23.257Z,32.88
2023-04-06T10:18:25.324Z,32.13
2023-04-06T10:20:32.500Z,32.63
2023-04-06T10:22:42.358Z,31.75
2023-04-06T10:24:44.135Z,32.38
2023-04-06T10:26:58.050Z,31.25
2023-04-06T10:29:04.420Z,30.55
2023-04-06T10:31:07.089Z,29.03
2023-04-06T10:33:16.587Z,29.39
2023-04-06T10:35:18.254Z,29.44
2023-04-06T10:37:20.043Z,29.75
2023-04-06T10:39:26.636Z,27.81
2023-04-06T10:41:36.367Z,29.60
2023-04-06T10:43:39.186Z,29.09
2023-04-06T10:45:41.605Z,28.99
2023-04-06T10:47:43.258Z,29.21
2023-04-06T10:49:45.108Z,28.90
2023-04-06T10:51:52.541Z,25.71
2023-04-06T10:53:55.452Z,27.33
2023-04-06T10:55:59.149Z,25.49
2023-04-06T10:58:01.079Z,25.73
2023-04-06T11:00:02.803Z,26.19
2023-04-06T11:02:04.607Z,25.50
2023-04-06T11:04:06.329Z,25.35
2023-04-06T11:06:07.993Z,25.41
2023-04-06T11:08:09.636Z,25.50
2023-04-06T11:10:16.873Z,23.56
2023-04-06T11:12:26.763Z,24.43
2023-04-06T11:14:28.452Z,23.89
2023-04-06T11:16:31.804Z,24.25
2023-04-06T11:18:33.494Z,25.34
2023-04-06T11:20:35.156Z,24.43
2023-04-06T11:22:36.838Z,24.21
2023-04-06T11:24:38.533Z,23.60
2023-04-06T11:26:42.431Z,23.04
2023-04-06T11:28:45.562Z,23.02
2023-04-06T11:30:47.908Z,23.54
2023-04-06T11:32:49.833Z,23.95
2023-04-06T11:34:51.658Z,24.37
2023-04-06T11:36:56.649Z,23.76
2023-04-06T11:38:58.251Z,23.32
2023-04-06T11:40:59.893Z,24.55
2023-04-06T11:43:01.796Z,24.71
2023-04-06T11:45:08.113Z,24.33
2023-04-06T11:47:11.747Z,24.11
2023-04-06T11:49:16.988Z,22.98
2023-04-06T11:51:23.710Z,24.24
2023-04-06T11:53:25.530Z,23.57
2023-04-06T11:55:27.159Z,22.71
2023-04-06T11:57:30.297Z,23.24
2023-04-06T11:59:32.202Z,23.10
2023-04-06T12:01:39.247Z,23.25
2023-04-06T12:03:41.224Z,22.53
2023-04-06T12:05:42.912Z,22.16
2023-04-06T12:07:44.554Z,21.71
2023-04-06T12:09:46.205Z,23.75
2023-04-06T12:11:47.828Z,22.35
2023-04-06T12:13:49.503Z,23.22
2023-04-06T12:15:51.200Z,22.06
2023-04-06T12:17:54.256Z,23.51
2023-04-06T12:19:57.202Z,23.08
2023-04-06T12:22:03.386Z,22.16
2023-04-06T12:24:05.566Z,22.90
2023-04-06T12:26:07.152Z,23.30
2023-04-06T12:28:15.144Z,24.35
2023-04-06T12:30:17.240Z,23.94
2023-04-06T12:32:19.268Z,23.77
2023-04-06T12:34:22.164Z,24.14
2023-04-06T12:36:23.785Z,23.45
2023-04-06T12:38:25.394Z,24.59
2023-04-06T12:40:26.935Z,23.97
2023-04-06T12:42:28.553Z,23.07
2023-04-06T12:44:30.267Z,22.63
2023-04-06T12:46:31.989Z,24.06
2023-04-06T12:48:33.758Z,22.97
2023-04-06T12:50:36.754Z,23.22
2023-04-06T12:52:38.350Z,24.07
2023-04-06T12:54:39.933Z,23.31
2023-04-06T12:56:42.794Z,22.92
2023-04-06T12:58:44.587Z,23.03
2023-04-06T13:00:46.426Z,24.12
2023-04-06T13:02:48.573Z,23.84
2023-04-06T13:04:50.585Z,23.74
2023-04-06T13:06:53.580Z,24.73
2023-04-06T13:09:02.124Z,23.72
2023-04-06T13:11:03.952Z,23.92
2023-04-06T13:13:05.590Z,23.78
2023-04-06T13:15:08.079Z,23.07
2023-04-06T13:17:09.810Z,23.10
2023-04-06T13:19:11.440Z,24.40
2023-04-06T13:21:14.954Z,23.49
2023-04-06T13:23:17.953Z,23.74
2023-04-06T13:25:19.589Z,23.80
2023-04-06T13:27:21.251Z,23.00
2023-04-06T13:29:28.575Z,22.56
2023-04-06T13:31:30.393Z,22.96
2023-04-06T13:33:32.311Z,23.66
2023-04-06T13:35:33.970Z,23.29
2023-04-06T13:37:36.163Z,23.19
2023-04-06T13:39:39.248Z,24.39
2023-04-06T13:41:40.930Z,24.17
2023-04-06T13:43:42.568Z,24.53
2023-04-06T13:45:50.248Z,24.94
2023-04-06T13:47:52.055Z,23.50
2023-04-06T13:49:55.912Z,23.08
2023-04-06T13:51:57.634Z,23.06
2023-04-06T13:53:59.298Z,22.85
2023-04-06T13:56:02.310Z,22.89
2023-04-06T13:58:03.921Z,23.84
2023-04-06T14:00:08.177Z,22.58
2023-04-06T14:02:11.709Z,22.86
2023-04-06T14:04:13.635Z,23.04
2023-04-06T14:08:20.434Z,22.64
2023-04-06T14:10:22.075Z,22.56
2023-04-06T14:12:25.144Z,21.84
2023-04-06T14:14:27.091Z,21.00
2023-04-06T14:16:28.621Z,21.96
2023-04-06T14:18:30.424Z,22.46
2023-04-06T14:20:33.350Z,23.22
2023-04-06T14:22:35.155Z,22.23
2023-04-06T14:24:36.966Z,22.04
2023-04-06T14:26:39.696Z,20.76
2023-04-06T14:28:43.365Z,21.27
2023-04-06T14:30:45.092Z,21.46
2023-04-06T14:32:46.831Z,22.37
2023-04-06T14:34:48.423Z,22.54
2023-04-06T14:36:49.985Z,22.70
2023-04-06T14:38:51.521Z,22.22
2023-04-06T14:40:53.137Z,22.29
2023-04-06T14:42:54.811Z,23.19
2023-04-06T14:44:58.006Z,22.85
2023-04-06T14:46:59.577Z,21.88
2023-04-06T14:49:01.199Z,22.57
2023-04-06T14:51:02.850Z,22.38
2023-04-06T14:53:04.465Z,22.64
2023-04-06T14:55:06.490Z,21.98
2023-04-06T14:57:08.049Z,21.72
2023-04-06T14:59:09.569Z,23.15
2023-04-06T15:01:12.535Z,23.63
2023-04-06T15:03:14.578Z,22.94
2023-04-06T15:05:16.508Z,24.11
2023-04-06T15:07:18.081Z,23.66
2023-04-06T15:09:19.573Z,23.88
2023-04-06T15:11:21.160Z,23.84
2023-04-06T15:13:22.842Z,24.75
2023-04-06T15:15:24.388Z,24.33
2023-04-06T15:17:27.492Z,23.69
2023-04-06T15:19:29.180Z,24.14
2023-04-06T15:21:30.858Z,23.98
2023-04-06T15:23:32.592Z,23.96
2023-04-06T15:25:34.144Z,23.59
2023-04-06T15:27:35.704Z,24.23
2023-04-06T15:29:37.439Z,24.60
2023-04-06T15:31:39.040Z,25.00
2023-04-06T15:33:44.215Z,23.93
2023-04-06T15:35:49.133Z,24.35
2023-04-06T15:37:50.676Z,24.22
2023-04-06T15:39:52.292Z,23.41
2023-04-06T15:41:53.907Z,24.08
2023-04-06T15:43:55.819Z,23.86
2023-04-06T15:45:57.376Z,24.10
2023-04-06T15:47:58.974Z,24.68
2023-04-06T15:50:02.036Z,24.33
2023-04-06T15:52:03.697Z,23.97
2023-04-06T15:54:05.414Z,24.38
2023-04-06T15:56:07.561Z,23.82
2023-04-06T15:58:09.110Z,24.34
2023-04-06T16:00:11.916Z,24.05
2023-04-06T16:02:13.621Z,23.84
2023-04-06T16:04:15.408Z,23.64
2023-04-06T16:06:18.391Z,23.28
2023-04-06T16:08:20.254Z,22.56
2023-04-06T16:10:21.819Z,22.99
2023-04-06T16:12:23.448Z,23.91
2023-04-06T16:14:25.002Z,23.54
2023-04-06T16:16:26.770Z,24.12
2023-04-06T16:18:28.355Z,24.76
2023-04-06T16:20:30.400Z,24.31
2023-04-06T16:22:33.296Z,24.08
2023-04-06T16:24:35.079Z,24.49
2023-04-06T16:26:36.646Z,25.91
2023-04-06T16:28:38.200Z,24.24
2023-04-06T16:30:41.066Z,24.70
2023-04-06T16:32:44.133Z,24.67
2023-04-06T16:34:45.701Z,24.54
2023-04-06T16:36:47.248Z,24.23
2023-04-06T16:38:50.212Z,24.62
2023-04-06T16:40:59.995Z,25.29
2023-04-06T16:43:01.562Z,26.01
2023-04-06T16:45:03.535Z,24.91
2023-04-06T16:47:05.179Z,24.32
2023-04-06T16:49:06.782Z,24.36
2023-04-06T16:51:08.882Z,24.98
2023-04-06T16:53:10.425Z,25.27
2023-04-06T16:55:13.656Z,26.35
2023-04-06T16:57:15.670Z,25.95
2023-04-06T16:59:17.462Z,26.17
2023-04-06T17:01:19.531Z,26.43
2023-04-06T17:03:21.288Z,26.81
2023-04-06T17:05:23.129Z,27.47
2023-04-06T17:07:24.720Z,27.19
2023-04-06T17:09:26.293Z,26.59
2023-04-06T17:11:48.905Z,26.77
2023-04-06T17:13:50.614Z,27.06
2023-04-06T17:15:52.158Z,27.55
2023-04-06T17:17:53.777Z,28.06
2023-04-06T17:19:55.508Z,28.88
2023-04-06T17:21:57.098Z,28.96
2023-04-06T17:23:58.800Z,29.11
2023-04-06T17:26:03.984Z,29.12
2023-04-06T17:28:08.182Z,29.26
2023-04-06T17:30:10.844Z,29.58
2023-04-06T17:32:12.366Z,29.15
2023-04-06T17:34:13.920Z,29.00
2023-04-06T17:36:15.572Z,29.36
2023-04-06T17:38:17.226Z,29.77
2023-04-06T17:40:19.324Z,29.30
2023-04-06T17:44:24.222Z,29.76
2023-04-06T17:46:25.957Z,29.79
2023-04-06T17:48:27.572Z,30.20
2023-04-06T17:50:29.196Z,30.60
2023-04-06T17:52:30.775Z,30.57
2023-04-06T17:54:34.035Z,31.33
2023-04-06T17:56:35.585Z,31.88
2023-04-06T17:58:37.260Z,31.90
2023-04-06T18:00:40.220Z,32.34
2023-04-06T18:02:41.810Z,32.41
2023-04-06T18:04:43.600Z,32.51
2023-04-06T18:06:45.290Z,32.49
2023-04-06T18:08:46.880Z,32.75
2023-04-06T18:10:48.502Z,33.29
2023-04-06T18:12:50.041Z,33.66
2023-04-06T18:14:51.601Z,34.36
2023-04-06T18:16:54.553Z,34.60
2023-04-06T18:18:56.247Z,34.94
2023-04-06T18:20:57.904Z,35.49
2023-04-06T18:22:59.485Z,35.35
2023-04-06T18:25:01.070Z,36.39
2023-04-06T18:27:02.773Z,37.40
2023-04-06T18:29:04.479Z,36.70
2023-04-06T18:31:06.110Z,36.70
2023-04-06T18:33:09.075Z,36.68
2023-04-06T18:35:10.731Z,36.72
2023-04-06T18:37:14.968Z,36.94
2023-04-06T18:39:16.539Z,37.30
2023-04-06T18:41:18.211Z,38.01
2023-04-06T18:43:20.048Z,38.34
2023-04-06T18:45:21.732Z,39.30
2023-04-06T18:47:23.467Z,40.20
2023-04-06T18:49:26.572Z,40.88
2023-04-06T18:51:28.912Z,40.95
2023-04-06T18:53:30.517Z,41.02
2023-04-06T18:55:32.212Z,41.63
2023-04-06T18:57:34.032Z,41.79
2023-04-06T18:59:35.605Z,42.31
2023-04-06T19:01:37.289Z,42.97
2023-04-06T19:03:41.460Z,44.04
2023-04-06T19:05:44.767Z,44.26
2023-04-06T19:07:46.407Z,44.36
2023-04-06T19:09:47.973Z,44.90
2023-04-06T19:11:49.705Z,45.95
2023-04-06T19:13:51.318Z,46.53
2023-04-06T19:15:52.924Z,47.65
2023-04-06T19:17:54.838Z,47.42
2023-04-06T19:19:56.430Z,47.10
2023-04-06T19:21:59.889Z,49.51
2023-04-06T19:24:01.580Z,49.32
2023-04-06T19:26:03.178Z,50.11
2023-04-06T19:28:04.783Z,50.57
2023-04-06T19:30:07.662Z,50.38
2023-04-06T19:32:09.335Z,49.98
2023-04-06T19:34:10.955Z,50.27
2023-04-06T19:36:13.197Z,50.90
2023-04-06T19:38:16.289Z,52.53
2023-04-06T19:40:17.852Z,50.94
2023-04-06T19:42:19.457Z,50.27
2023-04-06T19:44:21.104Z,51.84
2023-04-06T19:46:22.806Z,51.99
2023-04-06T19:48:24.524Z,52.58
2023-04-06T19:50:26.201Z,52.36
2023-04-06T19:52:28.937Z,51.44
2023-04-06T19:54:32.618Z,54.39
2023-04-06T19:56:34.244Z,54.11
2023-04-06T19:58:36.556Z,53.65
2023-04-06T20:00:38.172Z,54.12
2023-04-06T20:02:39.849Z,54.26
2023-04-06T20:04:41.527Z,55.40
2023-04-06T20:06:43.248Z,54.56
2023-04-06T20:08:45.052Z,56.01
2023-04-06T20:10:47.988Z,55.14
2023-04-06T20:12:49.533Z,53.34
2023-04-06T20:14:51.302Z,54.40
2023-04-06T20:16:52.972Z,52.76
2023-04-06T20:18:54.741Z,54.82
2023-04-06T20:20:56.368Z,54.22
2023-04-06T20:22:57.980Z,55.10
2023-04-06T20:24:59.599Z,54.57
2023-04-06T20:27:02.532Z,54.51
2023-04-06T20:29:04.151Z,51.71
2023-04-06T20:31:06.668Z,54.21
2023-04-06T20:33:08.365Z,54.21
2023-04-06T20:35:10.329Z,54.10
2023-04-06T20:37:11.895Z,52.85
2023-04-06T20:39:13.525Z,52.60
2023-04-06T20:41:15.498Z,53.82
2023-04-06T20:43:18.535Z,54.15
2023-04-06T20:45:20.093Z,53.36
2023-04-06T20:47:21.662Z,54.32
2023-04-06T20:49:23.342Z,54.35
2023-04-06T20:51:24.885Z,54.06
2023-04-06T20:53:26.456Z,54.27
2023-04-06T20:55:28.120Z,54.40
2023-04-06T20:57:29.689Z,54.64
2023-04-06T20:59:32.558Z,54.35
2023-04-06T21:01:34.229Z,54.86
2023-04-06T21:03:35.967Z,55.16
2023-04-06T21:05:37.760Z,55.45
2023-04-06T21:07:39.433Z,55.87
2023-04-06T21:09:41.368Z,54.93
2023-04-06T21:11:42.939Z,54.84
2023-04-06T21:13:44.484Z,54.92
2023-04-06T21:15:47.566Z,55.68
2023-04-06T21:17:49.303Z,56.41
2023-04-06T21:19:50.888Z,56.08
2023-04-06T21:21:52.479Z,56.36
2023-04-06T21:23:54.039Z,56.55
2023-04-06T21:25:55.605Z,56.14
2023-04-06T21:27:57.160Z,56.51
2023-04-06T21:29:58.672Z,56.86
2023-04-06T21:32:01.492Z,57.39
2023-04-06T21:34:03.096Z,57.05
2023-04-06T21:36:05.978Z,58.06
2023-04-06T21:38:07.706Z,57.34
2023-04-06T21:40:10.215Z,57.16
2023-04-06T21:42:11.812Z,57.41
2023-04-06T21:44:13.387Z,57.61
2023-04-06T21:46:14.965Z,58.33
2023-04-06T21:48:18.056Z,57.81
2023-04-06T21:50:19.707Z,58.24
2023-04-06T21:52:21.225Z,58.51
2023-04-06T21:54:22.814Z,58.22
2023-04-06T21:56:25.491Z,58.86
2023-04-06T21:58:27.070Z,58.49
2023-04-06T22:00:28.783Z,58.80
2023-04-06T22:02:30.486Z,58.86
2023-04-06T22:04:33.659Z,58.64
2023-04-06T22:06:36.653Z,59.17
2023-04-06T22:08:38.241Z,58.91
2023-04-06T22:10:39.785Z,59.32
2023-04-06T22:12:41.404Z,58.86
2023-04-06T22:14:43.017Z,58.83
2023-04-06T22:16:44.619Z,59.20
2023-04-06T22:18:46.230Z,59.11
2023-04-06T22:20:49.617Z,59.91
2023-04-06T22:22:51.313Z,59.10
2023-04-06T22:24:52.937Z,59.96
2023-04-06T22:26:54.506Z,59.37
2023-04-06T22:28:56.513Z,59.37
2023-04-06T22:30:58.063Z,59.67
2023-04-06T22:32:59.704Z,59.98
2023-04-06T22:35:01.313Z,59.70
2023-04-06T22:37:04.215Z,59.97
2023-04-06T22:39:05.871Z,59.74
2023-04-06T22:41:08.730Z,59.97
2023-04-06T22:43:10.445Z,59.68
2023-04-06T22:45:12.025Z,59.21
2023-04-06T22:47:13.676Z,58.71
2023-04-06T22:49:15.307Z,59.46
2023-04-06T22:51:16.957Z,60.12
2023-04-06T22:53:19.987Z,59.91
2023-04-06T22:55:21.690Z,60.48
2023-04-06T22:57:23.256Z,59.96
2023-04-06T22:59:24.893Z,60.11
2023-04-06T23:01:26.551Z,60.26
2023-04-06T23:03:28.321Z,60.10
2023-04-06T23:05:30.056Z,60.61
2023-04-06T23:07:31.695Z,60.57
2023-04-06T23:09:34.646Z,59.09
2023-04-06T23:11:36.141Z,59.95
2023-04-06T23:13:37.720Z,59.95
2023-04-06T23:15:39.286Z,59.73
2023-04-06T23:17:40.856Z,60.13
2023-04-06T23:19:42.428Z,60.48
2023-04-06T23:21:43.940Z,60.38
2023-04-06T23:23:45.521Z,59.90
2023-04-06T23:25:48.427Z,60.10
2023-04-06T23:27:50.065Z,60.07
2023-04-06T23:29:51.605Z,59.69
2023-04-06T23:31:53.317Z,59.48
2023-04-06T23:33:54.995Z,59.74
2023-04-06T23:35:56.563Z,59.44
2023-04-06T23:37:58.080Z,59.45
2023-04-06T23:39:59.614Z,59.53
2023-04-06T23:42:02.537Z,59.60
2023-04-06T23:44:04.043Z,59.50
2023-04-06T23:46:05.794Z,59.58
2023-04-06T23:48:07.888Z,59.96
2023-04-06T23:50:11.857Z,59.80
2023-04-06T23:52:13.483Z,59.57
2023-04-06T23:54:15.095Z,59.94
2023-04-06T23:56:16.663Z,59.80
2023-04-06T23:58:19.583Z,59.57
